createdAt,value
2022-09-16T00:01:01.003Z,10.90
2022-09-16T00:03:28.082Z,10.90
2022-09-16T00:05:55.415Z,10.80
2022-09-16T00:08:23.063Z,10.90
2022-09-16T00:10:50.349Z,10.90
2022-09-16T00:13:17.235Z,10.90
2022-09-16T00:15:48.067Z,10.80
2022-09-16T00:18:14.964Z,10.90
2022-09-16T00:20:45.687Z,10.90
2022-09-16T00:23:12.758Z,10.90
2022-09-16T00:25:39.791Z,10.90
2022-09-16T00:28:06.796Z,11.00
2022-09-16T00:30:33.965Z,11.00
2022-09-16T00:33:00.796Z,11.00
2022-09-16T00:35:27.936Z,11.00
2022-09-16T00:37:54.768Z,11.00
2022-09-16T00:40:21.637Z,11.10
2022-09-16T00:42:48.557Z,11.00
2022-09-16T00:45:18.573Z,11.10
2022-09-16T00:47:48.482Z,11.00
2022-09-16T00:50:33.093Z,11.00
2022-09-16T00:53:00.120Z,11.00
2022-09-16T00:55:28.967Z,11.00
2022-09-16T00:57:57.423Z,11.00
2022-09-16T01:00:24.232Z,11.00
2022-09-16T01:02:51.784Z,11.00
2022-09-16T01:05:23.238Z,11.00
2022-09-16T01:07:51.235Z,11.00
2022-09-16T01:10:20.074Z,11.00
2022-09-16T01:12:49.221Z,10.90
2022-09-16T01:15:17.985Z,10.90
2022-09-16T01:17:44.789Z,10.90
2022-09-16T01:20:11.896Z,10.90
2022-09-16T01:22:44.811Z,10.90
2022-09-16T01:25:14.533Z,10.90
2022-09-16T01:27:47.233Z,11.00
2022-09-16T01:30:14.092Z,11.00
2022-09-16T01:32:40.849Z,11.00
2022-09-16T01:35:13.734Z,10.90
2022-09-16T01:37:49.898Z,10.90
2022-09-16T01:40:23.173Z,11.00
2022-09-16T01:42:50.007Z,11.00
2022-09-16T01:45:16.791Z,11.00
2022-09-16T01:47:55.634Z,11.00
2022-09-16T01:50:25.510Z,11.00
2022-09-16T01:52:52.425Z,11.00
2022-09-16T01:55:24.651Z,11.00
2022-09-16T01:57:56.618Z,11.00
2022-09-16T02:00:23.938Z,11.00
2022-09-16T02:02:50.856Z,10.90
2022-09-16T02:05:29.176Z,10.90
2022-09-16T02:07:59.011Z,10.90
2022-09-16T02:10:32.252Z,10.90
2022-09-16T02:13:05.518Z,10.90
2022-09-16T02:15:33.340Z,10.90
2022-09-16T02:18:03.247Z,10.90
2022-09-16T02:20:31.828Z,10.80
2022-09-16T02:23:01.155Z,10.90
2022-09-16T02:25:29.729Z,10.90
2022-09-16T02:27:57.113Z,10.90
2022-09-16T02:30:24.165Z,10.90
2022-09-16T02:33:03.292Z,10.90
2022-09-16T02:35:31.603Z,10.80
2022-09-16T02:38:01.305Z,10.80
2022-09-16T02:40:34.403Z,10.90
2022-09-16T02:43:01.819Z,10.90
2022-09-16T02:45:51.783Z,10.80
2022-09-16T02:48:37.195Z,10.90
2022-09-16T02:51:13.249Z,10.90
2022-09-16T02:53:47.971Z,11.00
2022-09-16T02:56:35.302Z,10.90
2022-09-16T02:59:03.024Z,10.90
2022-09-16T03:01:31.894Z,10.80
2022-09-16T03:03:58.930Z,10.80
2022-09-16T03:06:27.286Z,10.80
2022-09-16T03:08:56.030Z,10.80
2022-09-16T03:11:24.865Z,10.90
2022-09-16T03:14:13.589Z,10.90
2022-09-16T03:16:45.313Z,10.90
2022-09-16T03:19:12.898Z,10.90
2022-09-16T03:21:52.105Z,10.90
2022-09-16T03:24:37.177Z,10.90
2022-09-16T03:27:04.063Z,10.90
2022-09-16T03:29:54.362Z,10.90
2022-09-16T03:32:23.215Z,11.00
2022-09-16T03:35:01.366Z,11.00
2022-09-16T03:37:32.346Z,10.90
2022-09-16T03:40:00.412Z,10.90
2022-09-16T03:42:27.460Z,11.00
2022-09-16T03:44:54.523Z,10.90
2022-09-16T03:47:21.558Z,10.90
2022-09-16T03:49:48.492Z,10.90
2022-09-16T03:52:17.431Z,10.90
2022-09-16T03:54:44.193Z,10.90
2022-09-16T03:57:11.025Z,10.90
2022-09-16T03:59:38.197Z,10.90
2022-09-16T04:02:05.104Z,10.90
2022-09-16T04:04:31.959Z,10.90
2022-09-16T04:06:58.961Z,10.90
2022-09-16T04:09:25.911Z,10.90
2022-09-16T04:11:53.087Z,10.90
2022-09-16T04:14:20.424Z,10.90
2022-09-16T04:16:47.946Z,10.90
2022-09-16T04:19:14.832Z,10.90
2022-09-16T04:21:42.702Z,11.00
2022-09-16T04:24:13.151Z,11.00
2022-09-16T04:26:40.599Z,10.90
2022-09-16T04:29:07.497Z,10.90
2022-09-16T04:31:34.335Z,10.90
2022-09-16T04:34:01.646Z,10.90
2022-09-16T04:36:29.004Z,10.90
2022-09-16T04:38:55.847Z,11.00
2022-09-16T04:41:24.020Z,11.00
2022-09-16T04:43:52.747Z,11.00
2022-09-16T04:46:19.827Z,11.00
2022-09-16T04:48:50.581Z,11.00
2022-09-16T04:51:17.931Z,11.10
2022-09-16T04:53:44.972Z,11.20
2022-09-16T04:56:15.749Z,11.10
2022-09-16T04:58:46.284Z,11.20
2022-09-16T05:01:16.541Z,11.10
2022-09-16T05:03:45.198Z,11.10
2022-09-16T05:06:18.356Z,11.20
2022-09-16T05:08:47.740Z,11.20
2022-09-16T05:11:17.561Z,11.20
2022-09-16T05:13:44.364Z,11.20
2022-09-16T05:16:15.346Z,11.10
2022-09-16T05:18:43.178Z,11.20
2022-09-16T05:21:11.556Z,11.20
2022-09-16T05:23:39.283Z,11.20
2022-09-16T05:26:08.568Z,11.20
2022-09-16T05:28:35.957Z,11.20
2022-09-16T05:31:13.736Z,11.30
2022-09-16T05:33:41.423Z,11.30
2022-09-16T05:36:09.359Z,11.30
2022-09-16T05:38:36.303Z,11.30
2022-09-16T05:41:03.790Z,11.30
2022-09-16T05:43:31.164Z,11.30
2022-09-16T05:45:57.965Z,11.30
2022-09-16T05:48:25.927Z,11.40
2022-09-16T05:50:53.628Z,11.40
2022-09-16T05:53:20.969Z,11.40
2022-09-16T05:56:02.357Z,11.40
2022-09-16T05:58:29.856Z,11.50
2022-09-16T06:01:04.067Z,11.50
2022-09-16T06:03:31.069Z,11.50
2022-09-16T06:06:01.727Z,11.50
2022-09-16T06:08:29.376Z,11.60
2022-09-16T06:10:56.199Z,11.50
2022-09-16T06:13:23.152Z,11.60
2022-09-16T06:15:51.481Z,11.60
2022-09-16T06:18:18.926Z,11.60
2022-09-16T06:20:46.407Z,11.60
2022-09-16T06:23:13.721Z,11.70
2022-09-16T06:25:40.519Z,11.80
2022-09-16T06:28:07.626Z,11.70
2022-09-16T06:30:34.547Z,11.70
2022-09-16T06:33:01.487Z,11.70
2022-09-16T06:35:28.562Z,11.80
2022-09-16T06:37:55.427Z,11.90
2022-09-16T06:40:22.214Z,11.80
2022-09-16T06:42:49.092Z,11.80
2022-09-16T06:45:16.033Z,11.80
2022-09-16T06:47:42.847Z,11.90
2022-09-16T06:50:09.835Z,11.90
2022-09-16T06:52:36.893Z,12.00
2022-09-16T06:55:04.028Z,12.00
2022-09-16T06:57:31.367Z,12.00
2022-09-16T06:59:58.369Z,12.00
2022-09-16T07:02:25.389Z,12.10
2022-09-16T07:04:52.269Z,12.10
2022-09-16T07:07:19.142Z,12.10
2022-09-16T07:09:46.295Z,12.00
2022-09-16T07:12:17.439Z,12.10
2022-09-16T07:14:46.314Z,12.10
2022-09-16T07:17:13.464Z,12.10
2022-09-16T07:19:42.518Z,12.10
2022-09-16T07:22:11.559Z,12.20
2022-09-16T07:24:38.421Z,12.20
2022-09-16T07:27:05.331Z,12.00
2022-09-16T07:29:32.263Z,12.00
2022-09-16T07:31:59.017Z,12.00
2022-09-16T07:34:26.512Z,12.00
2022-09-16T07:36:53.679Z,11.90
2022-09-16T07:39:21.307Z,11.90
2022-09-16T07:41:50.952Z,11.90
2022-09-16T07:44:19.208Z,11.90
2022-09-16T07:46:46.470Z,11.90
2022-09-16T07:49:14.132Z,11.90
2022-09-16T07:51:41.630Z,11.90
2022-09-16T07:54:09.453Z,12.00
2022-09-16T07:56:37.081Z,12.00
2022-09-16T07:59:05.063Z,12.10
2022-09-16T08:01:31.995Z,12.20
2022-09-16T08:03:59.389Z,12.30
2022-09-16T08:06:29.238Z,12.30
2022-09-16T08:08:59.812Z,12.20
2022-09-16T08:11:37.375Z,12.20
2022-09-16T08:14:04.294Z,12.00
2022-09-16T08:16:31.176Z,12.00
2022-09-16T08:18:58.973Z,12.00
2022-09-16T08:21:28.035Z,12.00
2022-09-16T08:23:55.720Z,12.10
2022-09-16T08:26:22.660Z,12.20
2022-09-16T08:29:07.895Z,12.30
2022-09-16T08:31:36.469Z,12.30
2022-09-16T08:34:03.544Z,12.30
2022-09-16T08:36:30.546Z,12.30
2022-09-16T08:38:57.518Z,12.30
2022-09-16T08:41:24.588Z,12.40
2022-09-16T08:44:07.328Z,12.40
2022-09-16T08:46:46.009Z,12.50
2022-09-16T08:51:45.540Z,12.50
2022-09-16T08:54:26.720Z,12.60
2022-09-16T08:57:05.170Z,12.50
2022-09-16T08:59:34.359Z,12.60
2022-09-16T09:02:19.327Z,12.60
2022-09-16T09:04:46.795Z,12.60
2022-09-16T09:07:16.644Z,12.60
2022-09-16T09:09:59.000Z,12.80
2022-09-16T09:12:26.870Z,12.90
2022-09-16T09:14:54.045Z,12.90
2022-09-16T09:17:29.968Z,12.90
2022-09-16T09:20:11.766Z,12.90
2022-09-16T09:22:51.025Z,12.90
2022-09-16T09:25:36.548Z,12.90
2022-09-16T09:28:23.471Z,12.90
2022-09-16T09:30:56.486Z,12.90
2022-09-16T09:33:46.264Z,13.00
2022-09-16T09:36:20.003Z,13.00
2022-09-16T09:38:46.814Z,13.00
2022-09-16T09:41:16.579Z,13.10
2022-09-16T09:43:49.839Z,13.20
2022-09-16T09:46:16.889Z,13.30
2022-09-16T09:49:00.322Z,13.40
2022-09-16T09:51:36.252Z,13.50
2022-09-16T09:54:06.240Z,13.60
2022-09-16T09:56:40.235Z,13.60
2022-09-16T09:59:13.067Z,13.70
2022-09-16T10:01:40.058Z,13.60
2022-09-16T10:04:14.933Z,13.70
2022-09-16T10:06:42.207Z,13.70
2022-09-16T10:09:12.520Z,13.80
2022-09-16T10:11:45.995Z,13.70
2022-09-16T10:14:22.282Z,13.60
2022-09-16T10:16:50.923Z,13.40
2022-09-16T10:19:25.326Z,13.20
2022-09-16T10:21:56.646Z,13.00
2022-09-16T10:24:30.295Z,12.60
2022-09-16T10:26:57.934Z,12.50
2022-09-16T10:29:24.893Z,12.50
2022-09-16T10:31:52.169Z,12.50
2022-09-16T10:34:24.775Z,12.60
2022-09-16T10:37:02.908Z,12.70
2022-09-16T10:39:30.083Z,12.80
2022-09-16T10:41:57.122Z,12.90
2022-09-16T10:44:31.708Z,12.90
2022-09-16T10:47:02.509Z,13.00
2022-09-16T10:49:32.410Z,12.90
2022-09-16T10:52:28.552Z,13.00
2022-09-16T10:54:56.062Z,13.00
2022-09-16T10:57:26.202Z,13.00
2022-09-16T11:00:11.802Z,13.00
2022-09-16T11:02:57.527Z,13.00
2022-09-16T11:05:44.741Z,13.10
2022-09-16T11:08:11.586Z,13.20
2022-09-16T11:10:55.316Z,13.30
2022-09-16T11:13:22.317Z,13.50
2022-09-16T11:16:07.728Z,13.40
2022-09-16T11:18:34.579Z,13.40
2022-09-16T11:21:07.510Z,13.40
2022-09-16T11:23:37.446Z,13.40
2022-09-16T11:26:19.425Z,13.40
2022-09-16T11:28:51.428Z,13.40
2022-09-16T11:31:36.717Z,13.40
2022-09-16T11:34:23.761Z,13.40
2022-09-16T11:37:06.118Z,13.40
2022-09-16T11:39:42.419Z,13.60
2022-09-16T11:42:09.235Z,13.70
2022-09-16T11:44:42.095Z,13.90
2022-09-16T11:47:16.674Z,14.00
2022-09-16T11:50:02.242Z,14.10
2022-09-16T11:52:44.736Z,14.20
2022-09-16T11:55:20.858Z,14.30
2022-09-16T11:57:51.832Z,14.40
2022-09-16T12:00:19.323Z,14.40
2022-09-16T12:03:05.049Z,14.40
2022-09-16T12:05:49.842Z,14.20
2022-09-16T12:08:31.611Z,14.10
2022-09-16T12:11:01.098Z,13.80
2022-09-16T12:13:31.158Z,13.30
2022-09-16T12:16:00.179Z,13.10
2022-09-16T12:18:30.554Z,12.80
2022-09-16T12:21:09.204Z,12.70
2022-09-16T12:23:39.269Z,12.50
2022-09-16T12:26:09.667Z,12.60
2022-09-16T12:28:57.576Z,12.60
2022-09-16T12:31:27.624Z,12.60
2022-09-16T12:33:59.326Z,12.60
2022-09-16T12:36:29.660Z,12.60
2022-09-16T12:38:59.688Z,12.60
2022-09-16T12:41:32.521Z,12.60
2022-09-16T12:44:11.149Z,12.40
2022-09-16T12:47:00.021Z,12.50
2022-09-16T12:49:33.084Z,12.40
2022-09-16T12:52:18.756Z,12.50
2022-09-16T12:55:08.078Z,12.60
2022-09-16T12:57:44.907Z,12.70
2022-09-16T13:00:17.553Z,12.80
2022-09-16T13:02:47.381Z,12.90
2022-09-16T13:05:17.780Z,13.00
2022-09-16T13:07:48.679Z,13.00
2022-09-16T13:10:34.993Z,12.90
2022-09-16T13:13:08.581Z,12.90
2022-09-16T13:15:37.001Z,12.90
2022-09-16T13:18:16.683Z,12.90
2022-09-16T13:21:07.301Z,13.00
2022-09-16T13:23:36.144Z,13.00
2022-09-16T13:26:09.802Z,12.90
2022-09-16T13:28:41.507Z,12.90
2022-09-16T13:31:11.393Z,12.90
2022-09-16T13:33:39.198Z,12.70
2022-09-16T13:36:15.351Z,12.70
2022-09-16T13:38:47.043Z,12.70
2022-09-16T13:41:14.585Z,12.60
2022-09-16T13:43:47.617Z,12.50
2022-09-16T13:46:26.360Z,12.50
2022-09-16T13:48:59.129Z,12.40
2022-09-16T13:51:26.470Z,12.40
2022-09-16T13:53:53.625Z,12.40
2022-09-16T13:56:36.149Z,12.50
2022-09-16T13:59:09.058Z,12.50
2022-09-16T14:01:59.020Z,12.50
2022-09-16T14:04:41.359Z,12.60
2022-09-16T14:07:31.367Z,12.60
2022-09-16T14:10:07.278Z,12.60
2022-09-16T14:12:41.748Z,12.60
2022-09-16T14:15:08.869Z,12.50
2022-09-16T14:17:40.042Z,12.50
2022-09-16T14:20:11.121Z,12.50
2022-09-16T14:22:38.172Z,12.50
2022-09-16T14:25:29.460Z,12.60
2022-09-16T14:28:10.318Z,12.60
2022-09-16T14:30:37.242Z,12.60
2022-09-16T14:33:04.198Z,12.60
2022-09-16T14:35:31.167Z,12.60
2022-09-16T14:38:00.406Z,12.60
2022-09-16T14:40:27.933Z,12.70
2022-09-16T14:43:05.941Z,12.70
2022-09-16T14:45:34.003Z,12.60
2022-09-16T14:48:02.434Z,12.60
2022-09-16T14:50:31.257Z,12.60
2022-09-16T14:52:59.292Z,12.70
2022-09-16T14:55:30.479Z,12.70
2022-09-16T14:57:58.417Z,12.70
2022-09-16T15:00:26.749Z,12.80
2022-09-16T15:03:07.764Z,12.80
2022-09-16T15:05:40.196Z,12.90
2022-09-16T15:08:14.256Z,12.80
2022-09-16T15:10:52.044Z,12.90
2022-09-16T15:13:21.535Z,12.80
2022-09-16T15:15:54.729Z,12.80
2022-09-16T15:18:21.609Z,12.90
2022-09-16T15:20:59.855Z,12.90
2022-09-16T15:23:27.756Z,12.90
2022-09-16T15:25:59.844Z,12.90
2022-09-16T15:28:26.718Z,12.90
2022-09-16T15:30:55.451Z,13.00
2022-09-16T15:33:29.960Z,13.00
2022-09-16T15:36:00.128Z,13.00
2022-09-16T15:38:27.066Z,13.00
2022-09-16T15:41:10.939Z,13.00
2022-09-16T15:43:40.151Z,13.00
2022-09-16T15:46:20.991Z,13.00
2022-09-16T15:48:49.719Z,13.00
2022-09-16T15:51:32.187Z,12.90
2022-09-16T15:54:07.213Z,12.90
2022-09-16T15:56:43.954Z,12.90
2022-09-16T15:59:23.667Z,12.90
2022-09-16T16:01:53.648Z,12.90
2022-09-16T16:04:28.645Z,13.00
2022-09-16T16:06:55.669Z,13.00
2022-09-16T16:09:28.633Z,12.90
2022-09-16T16:11:56.223Z,12.90
2022-09-16T16:14:24.594Z,12.90
2022-09-16T16:17:11.701Z,12.90
2022-09-16T16:19:39.249Z,12.90
2022-09-16T16:22:07.065Z,12.90
2022-09-16T16:24:34.061Z,12.90
2022-09-16T16:27:01.138Z,12.90
2022-09-16T16:29:28.099Z,12.90
2022-09-16T16:32:15.374Z,12.80
2022-09-16T16:34:47.447Z,12.90
2022-09-16T16:37:33.824Z,12.90
2022-09-16T16:40:02.432Z,12.90
2022-09-16T16:42:29.714Z,12.80
2022-09-16T16:44:56.816Z,12.80
2022-09-16T16:47:24.110Z,12.80
2022-09-16T16:49:51.834Z,12.80
2022-09-16T16:52:18.760Z,12.70
2022-09-16T16:54:48.298Z,12.80
2022-09-16T16:57:15.226Z,12.80
2022-09-16T16:59:42.265Z,12.80
2022-09-16T17:02:09.535Z,12.70
2022-09-16T17:04:36.878Z,12.80
2022-09-16T17:07:24.500Z,12.70
2022-09-16T17:09:50.641Z,12.80
2022-09-16T17:12:18.298Z,12.70
2022-09-16T17:14:45.135Z,12.70
2022-09-16T17:17:11.920Z,12.70
2022-09-16T17:19:38.692Z,12.70
2022-09-16T17:22:05.570Z,12.70
2022-09-16T17:24:32.578Z,12.70
2022-09-16T17:27:00.300Z,12.60
2022-09-16T17:29:27.116Z,12.60
2022-09-16T17:31:57.084Z,12.60
2022-09-16T17:34:26.487Z,12.60
2022-09-16T17:36:53.463Z,12.60
2022-09-16T17:39:21.314Z,12.70
2022-09-16T17:41:51.634Z,12.60
2022-09-16T17:44:19.174Z,12.60
2022-09-16T17:46:46.381Z,12.60
2022-09-16T17:49:17.516Z,12.50
2022-09-16T17:51:44.394Z,12.50
2022-09-16T17:54:11.467Z,12.60
2022-09-16T17:56:38.256Z,12.60
2022-09-16T17:59:05.293Z,12.50
2022-09-16T18:01:33.260Z,12.50
2022-09-16T18:04:00.183Z,12.60
2022-09-16T18:06:47.908Z,12.60
2022-09-16T18:09:16.406Z,12.60
2022-09-16T18:11:43.304Z,12.50
2022-09-16T18:14:12.190Z,12.40
2022-09-16T18:16:39.140Z,12.40
2022-09-16T18:19:06.276Z,12.40
2022-09-16T18:21:33.717Z,12.40
2022-09-16T18:24:02.462Z,12.30
2022-09-16T18:26:29.850Z,12.30
2022-09-16T18:29:12.959Z,12.30
2022-09-16T18:31:41.336Z,12.30
2022-09-16T18:34:08.184Z,12.30
2022-09-16T18:36:37.006Z,12.30
2022-09-16T18:39:04.395Z,12.30
2022-09-16T18:41:34.653Z,12.30
2022-09-16T18:44:03.751Z,12.30
2022-09-16T18:46:32.099Z,12.40
2022-09-16T18:48:59.540Z,12.40
2022-09-16T18:51:28.012Z,12.40
2022-09-16T18:53:56.626Z,12.40
2022-09-16T18:56:25.210Z,12.40
2022-09-16T18:59:19.444Z,12.40
2022-09-16T19:01:40.335Z,12.40
2022-09-16T19:04:08.773Z,12.30
2022-09-16T19:06:38.575Z,12.30
2022-09-16T19:09:06.753Z,12.20
2022-09-16T19:11:34.441Z,12.30
2022-09-16T19:14:01.824Z,12.40
2022-09-16T19:16:28.749Z,12.30
2022-09-16T19:18:56.246Z,12.30
2022-09-16T19:21:23.363Z,12.30
2022-09-16T19:23:58.775Z,12.30
2022-09-16T19:26:26.692Z,12.30
2022-09-16T19:28:53.673Z,12.20
2022-09-16T19:31:20.520Z,12.30
2022-09-16T19:33:47.560Z,12.30
2022-09-16T19:36:14.430Z,12.20
2022-09-16T19:38:41.498Z,12.30
2022-09-16T19:41:08.798Z,12.30
2022-09-16T19:43:36.016Z,12.20
2022-09-16T19:46:06.609Z,12.20
2022-09-16T19:48:34.754Z,12.20
2022-09-16T19:51:02.159Z,12.20
2022-09-16T19:53:29.225Z,12.20
2022-09-16T19:55:57.146Z,12.20
2022-09-16T19:58:24.529Z,12.20
2022-09-16T20:00:56.121Z,12.10
2022-09-16T20:03:23.635Z,12.10
2022-09-16T20:05:59.663Z,12.10
2022-09-16T20:08:26.485Z,12.00
2022-09-16T20:10:53.240Z,12.00
2022-09-16T20:13:20.429Z,12.00
2022-09-16T20:15:47.190Z,12.10
2022-09-16T20:18:14.096Z,12.10
2022-09-16T20:20:40.941Z,12.00
2022-09-16T20:23:07.731Z,12.10
2022-09-16T20:25:34.656Z,12.00
2022-09-16T20:28:01.610Z,12.00
2022-09-16T20:30:28.442Z,12.00
2022-09-16T20:32:56.044Z,12.00
2022-09-16T20:35:22.997Z,12.00
2022-09-16T20:37:49.943Z,12.00
2022-09-16T20:40:16.950Z,12.00
2022-09-16T20:42:44.050Z,12.10
2022-09-16T20:45:11.166Z,12.20
2022-09-16T20:47:38.141Z,12.10
2022-09-16T20:50:05.607Z,12.10
2022-09-16T20:52:33.620Z,12.10
2022-09-16T20:55:05.228Z,12.00
2022-09-16T20:57:32.484Z,12.10
2022-09-16T20:59:59.709Z,12.00
2022-09-16T21:02:26.712Z,11.90
2022-09-16T21:04:53.509Z,11.90
2022-09-16T21:07:21.397Z,11.90
2022-09-16T21:09:48.610Z,11.90
2022-09-16T21:12:16.692Z,11.80
2022-09-16T21:14:43.545Z,11.80
2022-09-16T21:17:10.387Z,11.80
2022-09-16T21:19:37.338Z,11.70
2022-09-16T21:22:04.204Z,11.70
2022-09-16T21:24:32.096Z,11.70
2022-09-16T21:26:59.050Z,11.60
2022-09-16T21:29:25.865Z,11.60
2022-09-16T21:31:52.757Z,11.50
2022-09-16T21:34:20.470Z,11.50
2022-09-16T21:36:47.821Z,11.40
2022-09-16T21:39:15.126Z,11.40
2022-09-16T21:41:42.756Z,11.40
2022-09-16T21:44:09.885Z,11.40
2022-09-16T21:46:41.761Z,11.40
2022-09-16T21:49:21.328Z,11.30
2022-09-16T21:51:48.588Z,11.40
2022-09-16T21:54:19.882Z,11.30
2022-09-16T21:56:47.710Z,11.40
2022-09-16T21:59:14.624Z,11.40
2022-09-16T22:01:41.460Z,11.40
2022-09-16T22:04:14.892Z,11.50
2022-09-16T22:06:42.000Z,11.50
2022-09-16T22:09:09.705Z,11.40
2022-09-16T22:11:37.665Z,11.40
2022-09-16T22:14:04.597Z,11.40
2022-09-16T22:16:33.629Z,11.40
2022-09-16T22:19:02.089Z,11.30
2022-09-16T22:21:30.100Z,11.40
2022-09-16T22:23:57.644Z,11.30
2022-09-16T22:26:24.548Z,11.30
2022-09-16T22:28:51.592Z,11.30
2022-09-16T22:31:19.593Z,11.30
2022-09-16T22:33:47.364Z,11.20
2022-09-16T22:36:15.481Z,11.10
2022-09-16T22:38:46.136Z,11.00
2022-09-16T22:41:13.487Z,11.00
2022-09-16T22:43:41.506Z,10.90
2022-09-16T22:46:09.698Z,10.90
2022-09-16T22:48:36.531Z,10.90
2022-09-16T22:51:04.051Z,10.90
2022-09-16T22:53:31.831Z,10.80
2022-09-16T22:55:59.755Z,10.80
2022-09-16T22:58:26.908Z,10.80
2022-09-16T23:01:01.010Z,10.80
2022-09-16T23:03:27.865Z,10.70
2022-09-16T23:05:55.463Z,10.70
2022-09-16T23:08:24.046Z,10.70
2022-09-16T23:10:50.920Z,10.60
2022-09-16T23:13:18.506Z,10.60
2022-09-16T23:15:45.782Z,10.60
2022-09-16T23:18:12.830Z,10.50
2022-09-16T23:20:39.792Z,10.50
2022-09-16T23:23:06.630Z,10.50
2022-09-16T23:25:34.836Z,10.50
2022-09-16T23:28:01.920Z,10.50
2022-09-16T23:30:28.902Z,10.40
2022-09-16T23:32:55.668Z,10.50
2022-09-16T23:35:22.607Z,10.40
2022-09-16T23:37:49.498Z,10.40
2022-09-16T23:40:16.403Z,10.40
2022-09-16T23:42:43.339Z,10.40
2022-09-16T23:45:10.224Z,10.40
2022-09-16T23:47:37.224Z,10.30
2022-09-16T23:50:04.631Z,10.40
2022-09-16T23:52:31.401Z,10.40
2022-09-16T23:54:58.219Z,10.30
2022-09-16T23:57:25.113Z,10.30
2022-09-16T23:59:51.902Z,10.40
